createdAt,value
2022-11-15T00:00:08.473Z,11.29
2022-11-15T00:01:08.379Z,11.35
2022-11-15T00:02:08.527Z,11.31
2022-11-15T00:03:08.331Z,11.28
2022-11-15T00:04:08.405Z,11.36
2022-11-15T00:05:08.321Z,11.29
2022-11-15T00:06:08.302Z,11.29
2022-11-15T00:07:08.353Z,11.34
2022-11-15T00:08:08.377Z,11.34
2022-11-15T00:09:08.348Z,11.38
2022-11-15T00:10:08.293Z,11.41
2022-11-15T00:11:08.395Z,11.38
2022-11-15T00:12:08.429Z,11.44
2022-11-15T00:13:08.345Z,11.46
2022-11-15T00:14:08.360Z,11.49
2022-11-15T00:15:08.391Z,11.52
2022-11-15T00:16:08.397Z,11.53
2022-11-15T00:17:08.326Z,11.49
2022-11-15T00:18:08.304Z,11.54
2022-11-15T00:19:08.303Z,11.61
2022-11-15T00:20:09.412Z,11.53
2022-11-15T00:21:08.333Z,11.64
2022-11-15T00:22:08.188Z,11.49
2022-11-15T00:23:08.219Z,11.56
2022-11-15T00:24:08.284Z,11.57
2022-11-15T00:25:08.219Z,11.52
2022-11-15T00:26:08.228Z,11.59
2022-11-15T00:27:09.167Z,11.56
2022-11-15T00:28:08.148Z,11.54
2022-11-15T00:29:08.217Z,11.62
2022-11-15T00:30:08.322Z,11.57
2022-11-15T00:31:08.479Z,11.53
2022-11-15T00:32:08.272Z,11.50
2022-11-15T00:33:08.210Z,11.43
2022-11-15T00:34:08.241Z,11.44
2022-11-15T00:35:08.188Z,11.44
2022-11-15T00:36:08.203Z,11.44
2022-11-15T00:37:08.221Z,11.41
2022-11-15T00:38:08.200Z,11.54
2022-11-15T00:39:08.181Z,11.43
2022-11-15T00:40:08.169Z,11.36
2022-11-15T00:41:09.962Z,11.35
2022-11-15T00:42:09.135Z,11.49
2022-11-15T00:43:08.139Z,11.43
2022-11-15T00:44:08.034Z,11.47
2022-11-15T00:45:08.029Z,11.41
2022-11-15T00:46:08.700Z,11.36
2022-11-15T00:47:08.087Z,11.38
2022-11-15T00:48:08.137Z,11.32
2022-11-15T00:49:08.157Z,11.34
2022-11-15T00:50:10.715Z,11.27
2022-11-15T00:51:08.979Z,11.21
2022-11-15T00:52:08.102Z,11.20
2022-11-15T00:53:08.176Z,11.14
2022-11-15T00:54:08.039Z,11.21
2022-11-15T00:55:08.035Z,11.20
2022-11-15T00:56:08.058Z,11.21
2022-11-15T00:57:08.057Z,11.24
2022-11-15T00:58:08.105Z,11.11
2022-11-15T00:59:08.047Z,11.19
2022-11-15T01:00:08.023Z,11.21
2022-11-15T01:01:08.180Z,11.16
2022-11-15T01:02:07.863Z,11.13
2022-11-15T01:03:07.878Z,11.17
2022-11-15T01:04:07.934Z,11.09
2022-11-15T01:05:07.928Z,11.21
2022-11-15T01:06:07.891Z,11.16
2022-11-15T01:07:08.037Z,11.14
2022-11-15T01:08:07.971Z,10.98
2022-11-15T01:09:07.993Z,11.10
2022-11-15T01:10:08.003Z,11.24
2022-11-15T01:11:07.941Z,11.13
2022-11-15T01:12:08.909Z,11.06
2022-11-15T01:13:07.917Z,11.14
2022-11-15T01:14:08.080Z,11.10
2022-11-15T01:15:07.949Z,11.09
2022-11-15T01:16:07.927Z,11.06
2022-11-15T01:17:07.894Z,11.10
2022-11-15T01:18:07.858Z,11.01
2022-11-15T01:19:08.795Z,11.06
2022-11-15T01:20:07.859Z,11.07
2022-11-15T01:21:07.854Z,11.06
2022-11-15T01:22:07.891Z,10.98
2022-11-15T01:23:07.759Z,11.03
2022-11-15T01:24:07.774Z,11.10
2022-11-15T01:25:07.911Z,11.03
2022-11-15T01:26:07.815Z,11.13
2022-11-15T01:27:07.858Z,11.07
2022-11-15T01:28:07.858Z,11.06
2022-11-15T01:29:07.824Z,11.06
2022-11-15T01:30:07.916Z,11.13
2022-11-15T01:31:07.798Z,11.01
2022-11-15T01:32:07.776Z,11.01
2022-11-15T01:33:07.846Z,11.07
2022-11-15T01:34:07.798Z,11.06
2022-11-15T01:35:07.857Z,10.92
2022-11-15T01:36:08.083Z,11.01
2022-11-15T01:37:07.828Z,11.03
2022-11-15T01:38:08.217Z,10.98
2022-11-15T01:39:08.755Z,10.95
2022-11-15T01:40:07.679Z,10.92
2022-11-15T01:41:07.718Z,10.88
2022-11-15T01:42:07.634Z,10.89
2022-11-15T01:43:07.744Z,10.91
2022-11-15T01:44:07.622Z,10.92
2022-11-15T01:45:07.639Z,10.91
2022-11-15T01:46:07.789Z,10.83
2022-11-15T01:47:07.676Z,10.73
2022-11-15T01:48:07.669Z,10.81
2022-11-15T01:49:07.657Z,10.70
2022-11-15T01:50:07.648Z,10.71
2022-11-15T01:51:07.652Z,10.63
2022-11-15T01:52:07.662Z,10.56
2022-11-15T01:53:07.650Z,10.59
2022-11-15T01:54:07.730Z,10.62
2022-11-15T01:55:07.675Z,10.47
2022-11-15T01:56:07.675Z,10.43
2022-11-15T01:57:07.554Z,10.47
2022-11-15T01:58:07.539Z,10.42
2022-11-15T01:59:07.581Z,10.36
2022-11-15T02:00:07.543Z,10.22
2022-11-15T02:01:07.547Z,10.30
2022-11-15T02:02:07.519Z,10.21
2022-11-15T02:03:07.493Z,10.17
2022-11-15T02:04:07.574Z,10.18
2022-11-15T02:05:07.629Z,10.15
2022-11-15T02:06:07.569Z,9.97
2022-11-15T02:07:07.575Z,9.86
2022-11-15T02:08:07.542Z,9.85
2022-11-15T02:09:07.537Z,9.76
2022-11-15T02:10:07.523Z,9.85
2022-11-15T02:11:07.529Z,9.73
2022-11-15T02:12:07.562Z,9.70
2022-11-15T02:13:07.500Z,9.60
2022-11-15T02:14:07.541Z,9.66
2022-11-15T02:15:07.514Z,9.56
2022-11-15T02:16:07.453Z,9.53
2022-11-15T02:17:07.406Z,9.60
2022-11-15T02:18:07.391Z,9.50
2022-11-15T02:19:07.520Z,9.40
2022-11-15T02:20:08.412Z,9.32
2022-11-15T02:21:07.385Z,9.31
2022-11-15T02:22:07.435Z,9.34
2022-11-15T02:23:07.502Z,9.28
2022-11-15T02:24:07.443Z,9.31
2022-11-15T02:25:07.593Z,9.43
2022-11-15T02:26:07.388Z,9.35
2022-11-15T02:27:07.392Z,9.40
2022-11-15T02:28:07.441Z,9.43
2022-11-15T02:29:07.385Z,9.49
2022-11-15T02:30:07.454Z,9.50
2022-11-15T02:31:07.383Z,9.48
2022-11-15T02:32:07.399Z,9.52
2022-11-15T02:33:07.371Z,9.63
2022-11-15T02:34:07.370Z,9.68
2022-11-15T02:35:07.357Z,9.64
2022-11-15T02:36:39.489Z,9.66
2022-11-15T02:37:40.293Z,9.76
2022-11-15T02:38:40.273Z,9.78
2022-11-15T02:39:40.239Z,9.75
2022-11-15T02:40:40.226Z,9.82
2022-11-15T02:41:40.364Z,9.82
2022-11-15T02:42:40.435Z,9.79
2022-11-15T02:43:40.334Z,9.78
2022-11-15T02:44:39.285Z,9.86
2022-11-15T02:45:40.308Z,9.93
2022-11-15T02:46:40.680Z,10.04
2022-11-15T02:47:40.290Z,9.96
2022-11-15T02:48:07.166Z,10.14
2022-11-15T02:49:07.225Z,10.00
2022-11-15T02:50:07.268Z,10.07
2022-11-15T02:51:07.252Z,10.15
2022-11-15T02:52:07.255Z,10.06
2022-11-15T02:53:07.217Z,10.10
2022-11-15T02:54:08.222Z,10.12
2022-11-15T02:55:07.152Z,10.14
2022-11-15T02:56:07.101Z,10.15
2022-11-15T02:57:07.151Z,10.19
2022-11-15T02:58:07.116Z,10.17
2022-11-15T02:59:07.193Z,10.21
2022-11-15T03:00:07.180Z,10.28
2022-11-15T03:01:07.186Z,10.19
2022-11-15T03:02:08.140Z,10.24
2022-11-15T03:03:07.236Z,10.17
2022-11-15T03:04:07.157Z,10.22
2022-11-15T03:05:07.259Z,10.25
2022-11-15T03:06:07.140Z,10.26
2022-11-15T03:07:07.245Z,10.24
2022-11-15T03:08:07.326Z,10.12
2022-11-15T03:09:07.208Z,10.21
2022-11-15T03:10:39.123Z,10.14
2022-11-15T03:11:07.010Z,10.15
2022-11-15T03:12:07.108Z,10.10
2022-11-15T03:13:07.144Z,10.15
2022-11-15T03:14:07.084Z,10.01
2022-11-15T03:15:07.095Z,9.97
2022-11-15T03:16:07.060Z,10.09
2022-11-15T03:17:41.586Z,9.96
2022-11-15T03:18:08.005Z,9.94
2022-11-15T03:19:07.032Z,9.91
2022-11-15T03:20:06.917Z,9.91
2022-11-15T03:21:06.924Z,9.88
2022-11-15T03:22:06.893Z,9.91
2022-11-15T03:23:06.940Z,9.86
2022-11-15T03:24:06.958Z,9.73
2022-11-15T03:25:06.915Z,9.76
2022-11-15T03:26:06.917Z,9.71
2022-11-15T03:27:06.885Z,9.75
2022-11-15T03:28:06.876Z,9.71
2022-11-15T03:29:07.006Z,9.67
2022-11-15T03:30:06.991Z,9.66
2022-11-15T03:31:06.972Z,9.52
2022-11-15T03:32:07.019Z,9.53
2022-11-15T03:33:06.957Z,9.53
2022-11-15T03:34:06.970Z,9.57
2022-11-15T03:35:06.973Z,9.53
2022-11-15T03:36:06.940Z,9.63
2022-11-15T03:37:06.910Z,9.58
2022-11-15T03:38:06.921Z,9.61
2022-11-15T03:39:06.903Z,9.60
2022-11-15T03:40:06.948Z,9.61
2022-11-15T03:41:06.913Z,9.52
2022-11-15T03:42:06.894Z,9.58
2022-11-15T03:43:06.828Z,9.58
2022-11-15T03:44:06.858Z,9.50
2022-11-15T03:45:06.800Z,9.57
2022-11-15T03:46:06.844Z,9.63
2022-11-15T03:47:06.769Z,9.67
2022-11-15T03:48:06.818Z,9.63
2022-11-15T03:49:06.823Z,9.68
2022-11-15T03:50:06.836Z,9.76
2022-11-15T03:51:06.917Z,9.70
2022-11-15T03:52:06.801Z,9.71
2022-11-15T03:53:06.904Z,9.83
2022-11-15T03:54:06.834Z,9.83
2022-11-15T03:55:06.882Z,9.82
2022-11-15T03:56:06.743Z,9.85
2022-11-15T03:57:06.844Z,9.83
2022-11-15T03:58:06.783Z,9.81
2022-11-15T03:59:06.745Z,9.83
2022-11-15T04:00:06.775Z,9.75
2022-11-15T04:01:06.793Z,9.73
2022-11-15T04:02:06.684Z,9.73
2022-11-15T04:03:06.736Z,9.71
2022-11-15T04:04:06.628Z,9.70
2022-11-15T04:05:06.623Z,9.76
2022-11-15T04:06:06.725Z,9.71
2022-11-15T04:07:06.816Z,9.76
2022-11-15T04:08:06.714Z,9.76
2022-11-15T04:09:06.671Z,9.68
2022-11-15T04:10:06.754Z,9.68
2022-11-15T04:11:06.688Z,9.75
2022-11-15T04:12:06.661Z,9.75
2022-11-15T04:13:06.690Z,9.75
2022-11-15T04:14:06.701Z,9.83
2022-11-15T04:15:06.687Z,9.75
2022-11-15T04:16:06.727Z,9.76
2022-11-15T04:17:06.590Z,9.85
2022-11-15T04:18:06.666Z,9.86
2022-11-15T04:19:06.650Z,9.85
2022-11-15T04:20:06.498Z,9.81
2022-11-15T04:21:06.496Z,9.78
2022-11-15T04:22:07.428Z,9.89
2022-11-15T04:23:06.534Z,9.93
2022-11-15T04:24:06.566Z,9.93
2022-11-15T04:25:06.494Z,9.97
2022-11-15T04:26:06.471Z,9.89
2022-11-15T04:27:06.499Z,9.93
2022-11-15T04:28:06.577Z,9.83
2022-11-15T04:29:06.574Z,9.97
2022-11-15T04:30:06.529Z,9.93
2022-11-15T04:31:06.537Z,9.88
2022-11-15T04:32:06.497Z,9.76
2022-11-15T04:33:06.497Z,9.85
2022-11-15T04:34:06.539Z,9.89
2022-11-15T04:35:06.571Z,9.68
2022-11-15T04:36:06.463Z,9.75
2022-11-15T04:37:06.525Z,9.75
2022-11-15T04:38:06.455Z,9.71
2022-11-15T04:39:06.522Z,9.76
2022-11-15T04:40:06.921Z,9.82
2022-11-15T04:41:06.447Z,9.71
2022-11-15T04:42:06.361Z,9.78
2022-11-15T04:43:06.384Z,9.82
2022-11-15T04:44:06.366Z,9.68
2022-11-15T04:45:06.538Z,9.70
2022-11-15T04:46:06.371Z,9.76
2022-11-15T04:47:06.335Z,9.85
2022-11-15T04:48:06.327Z,9.79
2022-11-15T04:49:06.324Z,9.66
2022-11-15T04:50:06.385Z,9.71
2022-11-15T04:51:06.406Z,9.70
2022-11-15T04:52:06.343Z,9.64
2022-11-15T04:53:06.349Z,9.66
2022-11-15T04:54:06.339Z,9.67
2022-11-15T04:55:08.317Z,9.68
2022-11-15T04:56:07.375Z,9.60
2022-11-15T04:57:06.397Z,9.63
2022-11-15T04:58:06.407Z,9.64
2022-11-15T04:59:06.336Z,9.58
2022-11-15T05:00:06.378Z,9.66
2022-11-15T05:01:06.276Z,9.56
2022-11-15T05:02:06.263Z,9.43
2022-11-15T05:03:06.234Z,9.40
2022-11-15T05:04:06.293Z,9.45
2022-11-15T05:05:06.231Z,9.46
2022-11-15T05:06:06.192Z,9.35
2022-11-15T05:07:06.246Z,9.39
2022-11-15T05:08:06.140Z,9.38
2022-11-15T05:09:06.269Z,9.32
2022-11-15T05:10:06.254Z,9.12
2022-11-15T05:11:06.249Z,9.15
2022-11-15T05:12:06.266Z,9.05
2022-11-15T05:13:06.244Z,8.86
2022-11-15T05:14:06.206Z,8.58
2022-11-15T05:15:06.247Z,8.55
2022-11-15T05:16:06.193Z,8.58
2022-11-15T05:17:06.222Z,8.47
2022-11-15T05:18:06.228Z,8.55
2022-11-15T05:19:06.239Z,8.68
2022-11-15T05:20:06.143Z,8.62
2022-11-15T05:21:06.262Z,8.71
2022-11-15T05:22:06.073Z,8.87
2022-11-15T05:23:06.138Z,8.79
2022-11-15T05:24:06.064Z,8.91
2022-11-15T05:25:06.054Z,8.97
2022-11-15T05:26:09.142Z,9.04
2022-11-15T05:27:07.196Z,9.01
2022-11-15T05:28:06.093Z,9.02
2022-11-15T05:29:06.112Z,9.12
2022-11-15T05:30:06.090Z,9.15
2022-11-15T05:31:06.058Z,9.21
2022-11-15T05:32:06.079Z,9.25
2022-11-15T05:33:06.112Z,9.31
2022-11-15T05:34:06.166Z,9.35
2022-11-15T05:35:06.026Z,9.48
2022-11-15T05:36:06.078Z,9.46
2022-11-15T05:37:05.955Z,9.42
2022-11-15T05:38:05.985Z,9.40
2022-11-15T05:39:06.049Z,9.49
2022-11-15T05:40:05.993Z,9.49
2022-11-15T05:41:05.922Z,9.52
2022-11-15T05:42:05.910Z,9.66
2022-11-15T05:43:05.947Z,9.63
2022-11-15T05:44:06.054Z,9.70
2022-11-15T05:45:06.120Z,9.68
2022-11-15T05:46:05.985Z,9.78
2022-11-15T05:47:05.984Z,9.88
2022-11-15T05:48:05.970Z,9.85
2022-11-15T05:49:05.978Z,9.93
2022-11-15T05:50:05.974Z,10.09
2022-11-15T05:51:06.054Z,10.03
2022-11-15T05:52:05.904Z,10.07
2022-11-15T05:53:05.937Z,10.15
2022-11-15T05:54:05.929Z,10.18
2022-11-15T05:55:05.900Z,10.21
2022-11-15T05:56:05.938Z,10.19
2022-11-15T05:57:05.897Z,10.24
2022-11-15T05:58:05.882Z,10.36
2022-11-15T05:59:05.898Z,10.32
2022-11-15T06:00:05.851Z,10.34
2022-11-15T06:01:05.760Z,10.42
2022-11-15T06:02:05.953Z,10.46
2022-11-15T06:03:05.853Z,10.47
2022-11-15T06:04:05.887Z,10.46
2022-11-15T06:05:05.768Z,10.56
2022-11-15T06:06:05.830Z,10.62
2022-11-15T06:07:05.965Z,10.52
2022-11-15T06:08:05.828Z,10.66
2022-11-15T06:09:05.796Z,10.65
2022-11-15T06:10:05.817Z,10.73
2022-11-15T06:11:05.792Z,10.83
2022-11-15T06:12:05.810Z,10.81
2022-11-15T06:13:05.820Z,10.91
2022-11-15T06:14:05.748Z,10.92
2022-11-15T06:15:05.752Z,10.91
2022-11-15T06:16:05.766Z,11.07
2022-11-15T06:17:11.018Z,11.06
2022-11-15T06:18:07.778Z,10.98
2022-11-15T06:19:05.675Z,11.11
2022-11-15T06:20:05.642Z,11.03
2022-11-15T06:21:05.644Z,10.99
2022-11-15T06:22:05.634Z,11.01
2022-11-15T06:23:05.834Z,11.09
2022-11-15T06:26:02.740Z,10.98
2022-11-15T06:27:03.991Z,10.91
2022-11-15T06:28:03.971Z,10.91
2022-11-15T06:29:03.938Z,10.92
2022-11-15T06:30:04.037Z,10.88
2022-11-15T06:31:03.981Z,10.81
2022-11-15T06:32:03.936Z,10.73
2022-11-15T06:33:04.000Z,10.84
2022-11-15T06:34:03.981Z,10.73
2022-11-15T06:35:03.901Z,10.74
2022-11-15T06:36:03.866Z,10.66
2022-11-15T06:37:03.881Z,10.63
2022-11-15T06:38:03.941Z,10.58
2022-11-15T06:39:03.880Z,10.59
2022-11-15T06:40:03.871Z,10.44
2022-11-15T06:41:03.783Z,10.43
2022-11-15T06:42:03.793Z,10.39
2022-11-15T06:43:03.815Z,10.44
2022-11-15T06:44:03.709Z,10.43
2022-11-15T06:45:03.845Z,10.36
2022-11-15T06:46:03.766Z,10.26
2022-11-15T06:47:03.751Z,10.34
2022-11-15T06:48:03.726Z,10.24
2022-11-15T06:49:08.352Z,10.36
2022-11-15T06:50:05.935Z,10.26
2022-11-15T06:51:03.797Z,10.28
2022-11-15T06:52:03.829Z,10.21
2022-11-15T06:53:03.779Z,10.21
2022-11-15T06:54:03.854Z,10.26
2022-11-15T06:55:03.842Z,10.15
2022-11-15T06:56:03.748Z,10.15
2022-11-15T06:57:03.740Z,10.10
2022-11-15T06:58:03.752Z,9.93
2022-11-15T06:59:03.711Z,9.91
2022-11-15T07:00:03.758Z,9.85
2022-11-15T07:01:03.816Z,9.73
2022-11-15T07:02:03.614Z,9.82
2022-11-15T07:03:03.772Z,9.66
2022-11-15T07:04:03.618Z,9.50
2022-11-15T07:05:03.650Z,9.43
2022-11-15T07:06:07.407Z,9.32
2022-11-15T07:07:04.773Z,9.42
2022-11-15T07:08:03.589Z,9.43
2022-11-15T07:09:03.653Z,9.40
2022-11-15T07:10:03.670Z,9.43
2022-11-15T07:11:03.668Z,9.39
2022-11-15T07:12:07.646Z,9.24
2022-11-15T07:13:04.687Z,9.18
2022-11-15T07:14:03.624Z,9.16
2022-11-15T07:15:03.661Z,9.12
2022-11-15T07:16:03.595Z,9.13
2022-11-15T07:17:03.693Z,9.12
2022-11-15T07:18:03.646Z,9.13
2022-11-15T07:19:03.682Z,9.18
2022-11-15T07:20:03.556Z,9.23
2022-11-15T07:21:03.568Z,9.32
2022-11-15T07:22:03.458Z,9.40
2022-11-15T07:23:03.479Z,9.38
2022-11-15T07:24:03.446Z,9.48
2022-11-15T07:25:03.574Z,9.49
2022-11-15T07:26:03.484Z,9.48
2022-11-15T07:27:03.586Z,9.39
2022-11-15T07:28:03.616Z,9.48
2022-11-15T07:29:03.512Z,9.39
2022-11-15T07:30:03.623Z,9.30
2022-11-15T07:31:03.492Z,9.34
2022-11-15T07:32:03.507Z,9.48
2022-11-15T07:33:03.464Z,9.66
2022-11-15T07:34:03.560Z,9.61
2022-11-15T07:35:03.454Z,9.68
2022-11-15T07:36:03.477Z,9.76
2022-11-15T07:37:03.480Z,9.76
2022-11-15T07:38:03.490Z,9.86
2022-11-15T07:39:03.447Z,9.85
2022-11-15T07:40:03.338Z,9.78
2022-11-15T07:41:03.386Z,9.71
2022-11-15T07:42:03.293Z,9.78
2022-11-15T07:43:03.335Z,9.75
2022-11-15T07:44:03.317Z,9.68
2022-11-15T07:45:03.354Z,9.71
2022-11-15T07:46:03.297Z,9.86
2022-11-15T07:47:03.270Z,10.01
2022-11-15T07:48:03.299Z,10.04
2022-11-15T07:49:03.308Z,9.94
2022-11-15T07:50:03.465Z,10.10
2022-11-15T07:51:03.353Z,10.14
2022-11-15T07:52:03.336Z,10.12
2022-11-15T07:53:03.322Z,10.25
2022-11-15T07:54:03.333Z,10.30
2022-11-15T07:55:03.348Z,10.22
2022-11-15T07:56:03.460Z,10.21
2022-11-15T07:57:07.252Z,10.22
2022-11-15T07:58:04.320Z,10.24
2022-11-15T07:59:03.364Z,10.25
2022-11-15T08:00:03.331Z,10.34
2022-11-15T08:01:03.370Z,10.33
2022-11-15T08:02:03.397Z,10.42
2022-11-15T08:03:03.219Z,10.44
2022-11-15T08:04:03.254Z,10.58
2022-11-15T08:05:03.204Z,10.62
2022-11-15T08:06:03.159Z,10.71
2022-11-15T08:07:03.282Z,10.84
2022-11-15T08:08:03.159Z,10.94
2022-11-15T08:09:03.291Z,10.95
2022-11-15T08:10:03.239Z,10.98
2022-11-15T08:11:03.236Z,11.09
2022-11-15T08:12:03.288Z,11.16
2022-11-15T08:13:03.335Z,11.13
2022-11-15T08:14:03.601Z,11.21
2022-11-15T08:15:03.194Z,11.27
2022-11-15T08:16:03.340Z,11.38
2022-11-15T08:17:03.220Z,11.44
2022-11-15T08:18:03.293Z,11.47
2022-11-15T08:22:30.930Z,11.49
2022-11-15T08:25:24.366Z,11.44
2022-11-15T08:28:17.789Z,11.62
2022-11-15T08:31:16.973Z,11.83
2022-11-15T08:32:50.194Z,11.86
2022-11-15T08:33:18.147Z,11.89
2022-11-15T08:34:18.100Z,11.94
2022-11-15T08:35:18.166Z,12.02
2022-11-15T08:36:18.315Z,12.06
2022-11-15T08:37:18.150Z,12.05
2022-11-15T08:38:18.139Z,12.02
2022-11-15T08:39:18.207Z,12.19
2022-11-15T08:40:18.305Z,12.12
2022-11-15T08:41:18.193Z,12.15
2022-11-15T08:42:19.980Z,12.19
2022-11-15T08:43:19.171Z,12.24
2022-11-15T08:44:18.221Z,12.31
2022-11-15T08:45:18.149Z,12.41
2022-11-15T08:46:18.197Z,12.39
2022-11-15T08:47:18.165Z,12.45
2022-11-15T08:48:18.092Z,12.42
2022-11-15T08:49:18.093Z,12.38
2022-11-15T08:50:18.126Z,12.31
2022-11-15T08:51:18.140Z,12.26
2022-11-15T08:52:18.161Z,12.21
2022-11-15T08:53:18.155Z,12.23
2022-11-15T08:54:18.081Z,12.27
2022-11-15T08:55:18.056Z,12.27
2022-11-15T08:56:17.995Z,12.24
2022-11-15T08:57:17.958Z,12.06
2022-11-15T08:58:18.014Z,12.09
2022-11-15T08:59:18.096Z,12.15
2022-11-15T09:00:17.937Z,12.11
2022-11-15T09:01:18.681Z,12.08
2022-11-15T09:02:18.934Z,12.13
2022-11-15T09:03:17.927Z,12.11
2022-11-15T09:04:18.007Z,12.21
2022-11-15T09:05:17.997Z,12.31
2022-11-15T09:06:17.987Z,12.26
2022-11-15T09:07:18.027Z,12.31
2022-11-15T09:08:47.041Z,12.34
2022-11-15T09:09:19.941Z,12.41
2022-11-15T09:10:17.995Z,12.46
2022-11-15T09:11:17.949Z,12.54
2022-11-15T09:12:17.954Z,12.62
2022-11-15T09:13:17.958Z,12.56
2022-11-15T09:14:18.025Z,12.63
2022-11-15T09:15:17.896Z,12.64
2022-11-15T09:16:17.929Z,12.69
2022-11-15T09:17:23.194Z,12.79
2022-11-15T09:18:22.240Z,12.92
2022-11-15T09:19:17.948Z,13.00
2022-11-15T09:20:17.989Z,12.96
2022-11-15T09:21:17.780Z,12.88
2022-11-15T09:22:17.756Z,13.04
2022-11-15T09:23:17.850Z,12.97
2022-11-15T09:24:17.933Z,12.85
2022-11-15T09:25:17.912Z,12.81
2022-11-15T09:26:17.998Z,12.84
2022-11-15T09:27:17.841Z,12.96
2022-11-15T09:28:17.852Z,12.93
2022-11-15T09:29:17.848Z,12.84
2022-11-15T09:30:17.835Z,12.85
2022-11-15T09:31:21.025Z,12.97
2022-11-15T09:32:18.873Z,13.03
2022-11-15T09:33:17.773Z,13.02
2022-11-15T09:34:17.830Z,13.06
2022-11-15T09:35:17.795Z,13.04
2022-11-15T09:36:17.835Z,13.03
2022-11-15T09:37:17.763Z,13.11
2022-11-15T09:38:17.814Z,12.96
2022-11-15T09:39:17.689Z,13.06
2022-11-15T09:40:17.669Z,13.27
2022-11-15T09:41:17.679Z,13.30
2022-11-15T09:42:17.809Z,13.40
2022-11-15T09:43:17.652Z,13.46
2022-11-15T09:44:21.170Z,13.55
2022-11-15T09:45:19.662Z,13.58
2022-11-15T09:46:17.735Z,13.55
2022-11-15T09:47:17.818Z,13.61
2022-11-15T09:48:17.682Z,13.74
2022-11-15T09:49:17.765Z,13.88
2022-11-15T09:50:17.661Z,13.91
2022-11-15T09:51:17.839Z,13.89
2022-11-15T09:52:17.699Z,13.95
2022-11-15T09:53:17.727Z,13.89
2022-11-15T09:55:19.622Z,14.07
2022-11-15T09:56:17.704Z,14.06
2022-11-15T09:57:17.625Z,14.09
2022-11-15T09:58:17.696Z,13.99
2022-11-15T09:59:17.700Z,13.89
2022-11-15T10:00:44.777Z,13.84
2022-11-15T10:01:19.543Z,13.73
2022-11-15T10:02:17.526Z,13.63
2022-11-15T10:03:17.527Z,13.55
2022-11-15T10:04:17.576Z,13.61
2022-11-15T10:05:17.505Z,13.65
2022-11-15T10:06:17.488Z,13.74
2022-11-15T10:07:17.583Z,13.77
2022-11-15T10:08:17.555Z,13.77
2022-11-15T10:09:22.565Z,13.94
2022-11-15T10:10:19.567Z,13.99
2022-11-15T10:12:19.452Z,14.07
2022-11-15T10:13:17.578Z,14.04
2022-11-15T10:14:17.724Z,14.21
2022-11-15T10:15:17.507Z,14.29
2022-11-15T10:16:17.487Z,14.39
2022-11-15T10:17:17.497Z,14.50
2022-11-15T10:18:17.500Z,14.46
2022-11-15T10:19:17.483Z,14.38
2022-11-15T10:20:17.497Z,14.39
2022-11-15T10:21:17.480Z,14.37
2022-11-15T10:22:17.499Z,14.21
2022-11-15T10:23:18.467Z,14.34
2022-11-15T10:24:17.471Z,14.27
2022-11-15T10:25:17.494Z,14.32
2022-11-15T10:26:17.429Z,14.19
2022-11-15T10:27:17.460Z,14.28
2022-11-15T10:28:17.499Z,14.24
2022-11-15T10:29:17.328Z,14.25
2022-11-15T10:30:17.346Z,14.34
2022-11-15T10:31:17.478Z,14.25
2022-11-15T10:32:17.377Z,14.37
2022-11-15T10:33:17.324Z,14.42
2022-11-15T10:34:17.370Z,14.38
2022-11-15T10:35:17.526Z,14.49
2022-11-15T10:36:17.421Z,14.53
2022-11-15T10:37:17.466Z,14.53
2022-11-15T10:38:17.492Z,14.64
2022-11-15T10:39:17.675Z,14.57
2022-11-15T10:40:17.373Z,14.50
2022-11-15T10:41:17.378Z,14.53
2022-11-15T10:42:18.051Z,14.39
2022-11-15T10:43:18.483Z,14.43
2022-11-15T10:44:17.340Z,14.54
2022-11-15T10:45:17.344Z,14.50
2022-11-15T10:46:44.477Z,14.47
2022-11-15T10:47:19.295Z,14.46
2022-11-15T10:48:17.319Z,14.49
2022-11-15T10:49:17.332Z,14.44
2022-11-15T10:50:17.304Z,14.53
2022-11-15T10:51:17.227Z,14.60
2022-11-15T10:52:17.216Z,14.64
2022-11-15T10:53:17.178Z,14.49
2022-11-15T10:54:21.003Z,14.64
2022-11-15T10:55:18.148Z,14.52
2022-11-15T10:56:17.147Z,14.71
2022-11-15T10:57:17.282Z,14.68
2022-11-15T10:58:17.286Z,14.78
2022-11-15T10:59:17.259Z,14.62
2022-11-15T11:00:17.320Z,14.61
2022-11-15T11:01:17.309Z,14.68
2022-11-15T11:02:17.111Z,14.80
2022-11-15T11:03:17.428Z,14.74
2022-11-15T11:04:17.237Z,14.72
2022-11-15T11:05:17.180Z,14.68
2022-11-15T11:06:17.320Z,14.64
2022-11-15T11:07:17.213Z,14.71
2022-11-15T11:08:17.172Z,14.81
2022-11-15T11:09:17.167Z,14.60
2022-11-15T11:10:44.237Z,14.64
2022-11-15T11:11:19.048Z,14.78
2022-11-15T11:12:17.099Z,14.72
2022-11-15T11:13:17.148Z,14.88
2022-11-15T11:14:17.147Z,15.02
2022-11-15T11:15:17.090Z,14.99
2022-11-15T11:16:17.208Z,15.02
2022-11-15T11:17:17.084Z,14.94
2022-11-15T11:18:16.984Z,14.91
2022-11-15T11:19:17.050Z,14.93
2022-11-15T11:20:17.052Z,14.88
2022-11-15T11:21:16.986Z,14.69
2022-11-15T11:22:17.182Z,14.72
2022-11-15T11:23:17.018Z,14.61
2022-11-15T11:24:17.073Z,14.72
2022-11-15T11:25:17.100Z,14.75
2022-11-15T11:26:16.999Z,14.93
2022-11-15T11:27:17.041Z,14.88
2022-11-15T11:28:17.030Z,14.91
2022-11-15T11:29:16.995Z,14.91
2022-11-15T11:30:18.098Z,14.88
2022-11-15T11:31:17.020Z,14.87
2022-11-15T11:32:17.073Z,14.81
2022-11-15T11:33:17.023Z,14.71
2022-11-15T11:34:17.044Z,14.69
2022-11-15T11:35:17.139Z,14.94
2022-11-15T11:37:24.476Z,14.95
2022-11-15T11:38:25.832Z,15.03
2022-11-15T11:39:25.861Z,15.03
2022-11-15T11:40:25.872Z,14.99
2022-11-15T11:41:25.698Z,14.91
2022-11-15T11:42:25.640Z,14.93
2022-11-15T11:43:25.616Z,14.94
2022-11-15T11:44:25.620Z,14.98
2022-11-15T11:45:25.653Z,15.05
2022-11-15T11:46:25.628Z,15.06
2022-11-15T11:47:25.747Z,15.09
2022-11-15T11:48:25.700Z,15.12
2022-11-15T11:49:25.575Z,15.23
2022-11-15T11:50:25.734Z,15.19
2022-11-15T11:51:25.671Z,15.26
2022-11-15T11:52:25.649Z,15.21
2022-11-15T11:53:25.703Z,15.30
2022-11-15T11:54:25.745Z,15.26
2022-11-15T11:55:25.669Z,15.15
2022-11-15T11:56:25.738Z,15.08
2022-11-15T11:57:25.630Z,15.09
2022-11-15T11:58:25.625Z,15.05
2022-11-15T11:59:25.749Z,15.01
2022-11-15T12:00:25.618Z,15.09
2022-11-15T12:01:25.699Z,15.12
2022-11-15T12:02:25.576Z,15.30
2022-11-15T12:03:25.678Z,15.23
2022-11-15T12:04:25.607Z,15.39
2022-11-15T12:05:25.669Z,15.41
2022-11-15T12:06:25.588Z,15.43
2022-11-15T12:07:25.852Z,15.26
2022-11-15T12:08:25.591Z,15.23
2022-11-15T12:09:25.495Z,15.28
2022-11-15T12:10:25.619Z,15.27
2022-11-15T12:11:25.506Z,15.21
2022-11-15T12:12:25.784Z,15.26
2022-11-15T12:13:25.449Z,15.24
2022-11-15T12:14:25.608Z,15.38
2022-11-15T12:15:25.419Z,15.43
2022-11-15T12:16:25.478Z,15.38
2022-11-15T12:17:25.379Z,15.54
2022-11-15T12:18:25.535Z,15.52
2022-11-15T12:19:25.620Z,15.64
2022-11-15T12:20:25.469Z,15.74
2022-11-15T12:21:28.511Z,15.88
2022-11-15T12:22:26.413Z,15.81
2022-11-15T12:23:25.730Z,15.72
2022-11-15T12:24:25.782Z,15.78
2022-11-15T12:25:25.415Z,15.59
2022-11-15T12:26:25.443Z,15.49
2022-11-15T12:27:26.848Z,15.57
2022-11-15T12:28:26.490Z,15.45
2022-11-15T12:29:25.651Z,15.63
2022-11-15T12:30:25.407Z,15.43
2022-11-15T12:31:25.407Z,15.36
2022-11-15T12:32:25.413Z,15.26
2022-11-15T12:33:25.333Z,15.31
2022-11-15T12:34:25.436Z,15.35
2022-11-15T12:35:25.440Z,15.43
2022-11-15T12:36:25.400Z,15.31
2022-11-15T12:37:25.322Z,15.52
2022-11-15T12:38:25.676Z,15.59
2022-11-15T12:39:25.298Z,15.56
2022-11-15T12:40:25.224Z,15.67
2022-11-15T12:41:25.319Z,15.54
2022-11-15T12:42:25.214Z,15.60
2022-11-15T12:43:25.187Z,15.70
2022-11-15T12:44:25.215Z,15.76
2022-11-15T12:45:25.242Z,15.88
2022-11-15T12:46:25.280Z,15.82
2022-11-15T12:47:25.267Z,15.79
2022-11-15T12:48:25.281Z,15.79
2022-11-15T12:49:25.288Z,15.89
2022-11-15T12:50:25.356Z,16.00
2022-11-15T12:51:25.253Z,16.11
2022-11-15T12:52:25.252Z,15.96
2022-11-15T12:53:25.180Z,15.96
2022-11-15T12:54:25.232Z,16.07
2022-11-15T12:55:25.188Z,16.18
2022-11-15T12:56:26.292Z,16.03
2022-11-15T12:57:25.185Z,16.14
2022-11-15T12:58:25.135Z,16.09
2022-11-15T12:59:25.174Z,16.15
2022-11-15T13:00:25.500Z,16.06
2022-11-15T13:01:26.171Z,15.99
2022-11-15T13:02:25.073Z,15.99
2022-11-15T13:03:25.138Z,16.12
2022-11-15T13:04:25.069Z,16.04
2022-11-15T13:05:25.180Z,16.26
2022-11-15T13:06:25.067Z,16.26
2022-11-15T13:07:25.264Z,16.37
2022-11-15T13:08:25.046Z,16.41
2022-11-15T13:09:25.081Z,16.42
2022-11-15T13:10:27.946Z,16.48
2022-11-15T13:11:26.136Z,16.65
2022-11-15T13:12:25.720Z,16.85
2022-11-15T13:13:25.116Z,16.86
2022-11-15T13:14:25.084Z,17.00